Yusho Cherry — 3ELM7 — position and weather

sailwx.info

Track history (hours):
 
Tides and Currents Weather Stations Pressure Air Temp Water Temp Dewpoint Dewpoint Depression Visibility Wind Speed Wind Dir Waves Ship Positions

Yusho Cherry

Last reported at 2018-Jan-20 00:56 UTC. Time now 2018-Jan-20 01:22 UTC.
Position N 34°39' E 135°26'.

Length 110 m; draft 5.6 m.

Type: Ship. MMSI: 372991000.

Date/timePositionNaut miles runAvg speedWind from/ knotsBaromVisibWave heightAir tempDewpointWater temp
2018-Jan-20 00:56N 34°39' E 135°26'0 0.0
2018-Jan-20 00:26N 34°39' E 135°26'0 0.0
2018-Jan-19 23:56N 34°39' E 135°26'0 0.0
2018-Jan-19 23:26N 34°39' E 135°26'0 0.0
2018-Jan-19 22:56N 34°39' E 135°26'0 0.0
2018-Jan-19 22:29N 34°39' E 135°26'0 1.0
2018-Jan-19 22:00N 34°39' E 135°25'2 4.8
2018-Jan-19 21:30N 34°38' E 135°23'1 1.3
2018-Jan-19 20:58N 34°37' E 135°22'0 0.0
2018-Jan-19 20:28N 34°37' E 135°22'0 0.0
2018-Jan-19 19:58N 34°37' E 135°22'0 0.1
2018-Jan-19 19:28N 34°37' E 135°22'0 0.0
2018-Jan-19 18:58N 34°37' E 135°22'0 0.1
2018-Jan-19 18:28N 34°37' E 135°22'0 0.1
2018-Jan-19 17:58N 34°37' E 135°22'0 0.1
2018-Jan-19 17:28N 34°37' E 135°22'0 0.1
2018-Jan-19 16:58N 34°37' E 135°22'0 0.1
2018-Jan-19 16:28N 34°37' E 135°22'0 0.1
2018-Jan-19 15:58N 34°37' E 135°22'0 0.0
2018-Jan-19 15:28N 34°37' E 135°22'0 0.0
2018-Jan-19 14:58N 34°37' E 135°22'0 0.0
2018-Jan-19 14:28N 34°37' E 135°22'0 0.0
2018-Jan-19 13:58N 34°37' E 135°22'0 0.0
2018-Jan-19 13:28N 34°37' E 135°22'0 0.0
2018-Jan-19 12:58N 34°37' E 135°22'0 0.0
2018-Jan-19 12:28N 34°37' E 135°22'0 0.0
2018-Jan-19 11:58N 34°37' E 135°22'0 0.0
2018-Jan-19 11:22N 34°37' E 135°22'1 2.0
2018-Jan-19 11:00N 34°36' E 135°22'4 8.2
2018-Jan-19 10:30N 34°32' E 135°24'1 2.0
2018-Jan-19 09:58N 34°31' E 135°24'0 0.0
2018-Jan-19 09:26N 34°31' E 135°24'0 0.1
2018-Jan-19 08:58N 34°31' E 135°24'0 0.0
2018-Jan-19 08:25N 34°31' E 135°24'0 0.0
2018-Jan-19 07:58N 34°31' E 135°24'0 0.0
2018-Jan-19 07:28N 34°31' E 135°24'0 0.0
2018-Jan-19 06:58N 34°31' E 135°24'0 0.0
2018-Jan-19 06:28N 34°31' E 135°24'0 0.0
2018-Jan-19 05:58N 34°31' E 135°24'0 0.0
2018-Jan-19 05:28N 34°31' E 135°24'0 0.0
2018-Jan-19 04:58N 34°31' E 135°24'0 0.0
2018-Jan-19 04:28N 34°31' E 135°24'0 0.0
2018-Jan-19 03:58N 34°31' E 135°24'0 0.0
2018-Jan-19 03:28N 34°31' E 135°24'0 0.0
2018-Jan-19 02:58N 34°31' E 135°24'0 0.0
2018-Jan-19 02:25N 34°31' E 135°24'0 0.0
2018-Jan-19 01:58N 34°31' E 135°24'0 0.0
2018-Jan-19 01:28N 34°31' E 135°24'0 0.0
2018-Jan-19 00:58N 34°31' E 135°24'0 0.0
2018-Jan-19 00:30N 34°31' E 135°24'0 0.0
2018-Jan-18 23:59N 34°31' E 135°24'0 0.0
2018-Jan-18 23:30N 34°31' E 135°24'0 0.0
2018-Jan-18 23:00N 34°31' E 135°24'0 0.0
2018-Jan-18 22:30N 34°31' E 135°24'0 0.0
2018-Jan-18 22:00N 34°31' E 135°24'0 0.0
2018-Jan-18 21:30N 34°31' E 135°24'0 0.0
2018-Jan-18 21:00N 34°31' E 135°24'0 0.0
2018-Jan-18 20:30N 34°31' E 135°24'0 0.0
2018-Jan-18 20:00N 34°31' E 135°24'0 0.0
2018-Jan-18 19:30N 34°31' E 135°24'0 0.0
2018-Jan-18 19:00N 34°31' E 135°24'0 0.0
2018-Jan-18 18:30N 34°31' E 135°24'0 0.0
2018-Jan-18 18:00N 34°31' E 135°24'0 0.0
2018-Jan-18 17:30N 34°31' E 135°24'0 0.0
2018-Jan-18 17:00N 34°31' E 135°24'0 0.0
2018-Jan-18 16:29N 34°31' E 135°24'0 0.0
2018-Jan-18 15:56N 34°31' E 135°24'0 0.0
2018-Jan-18 15:29N 34°31' E 135°24'0 0.0
2018-Jan-18 14:59N 34°31' E 135°24'0 0.0
2018-Jan-18 14:29N 34°31' E 135°24'0 0.0
2018-Jan-18 13:56N 34°31' E 135°24'0 0.0
2018-Jan-18 13:29N 34°31' E 135°24'0 0.0
2018-Jan-18 12:59N 34°31' E 135°24'0 0.0
2018-Jan-18 12:29N 34°31' E 135°24'0 0.0
2018-Jan-18 11:59N 34°31' E 135°24'0 0.0
2018-Jan-18 11:29N 34°31' E 135°24'0 0.0
2018-Jan-18 10:59N 34°31' E 135°24'0 0.0
2018-Jan-18 10:29N 34°31' E 135°24'0 0.0
2018-Jan-18 09:59N 34°31' E 135°24'0 0.0
2018-Jan-18 09:26N 34°31' E 135°24'0 0.0
2018-Jan-18 08:56N 34°31' E 135°24'0 0.0
2018-Jan-18 08:29N 34°31' E 135°24'0 0.0
2018-Jan-18 07:59N 34°31' E 135°24'0 0.0
2018-Jan-18 07:26N 34°31' E 135°24'0 0.0
2018-Jan-18 06:59N 34°31' E 135°24'0 0.0
2018-Jan-18 06:29N 34°31' E 135°24'0 0.0
2018-Jan-18 05:56N 34°31' E 135°24'0 0.0
2018-Jan-18 05:29N 34°31' E 135°24'0 0.0
2018-Jan-18 04:56N 34°31' E 135°24'0 0.0
2018-Jan-18 04:26N 34°31' E 135°24'0 0.0
2018-Jan-18 03:56N 34°31' E 135°24'0 0.0
2018-Jan-18 03:26N 34°31' E 135°24'0 0.0
2018-Jan-18 02:56N 34°31' E 135°24'0 0.0
2018-Jan-18 02:26N 34°31' E 135°24'0 0.0
2018-Jan-18 01:56N 34°31' E 135°24'0 0.0
2018-Jan-18 01:26N 34°31' E 135°24'0 0.0
2018-Jan-18 00:50N 34°31' E 135°24'0 0.0
2018-Jan-17 23:59N 34°31' E 135°24'0 0.1
2018-Jan-17 23:56N 34°31' E 135°24'  
2018-Jan-12 14:59N 34°28' E 138°13'2 3.1
2018-Jan-12 14:29N 34°28' E 138°11'1 2.9
2018-Jan-12 13:59N 34°28' E 138°09'7 2.6
2018-Jan-12 11:18N 34°28' E 138°01'27 3.2
2018-Jan-12 02:47N 34°28' E 137°28'4011.1
2018-Jan-11 23:11N 34°06' E 136°48'410.9
2018-Jan-11 22:49N 34°04' E 136°44'510.8
2018-Jan-11 22:19N 34°00' E 136°39'69 9.9
2018-Jan-11 15:17N 33°29' E 135°25'512.7
2018-Jan-11 14:55N 33°31' E 135°19'512.6
2018-Jan-11 14:29N 33°35' E 135°15'1112.5
2018-Jan-11 13:38N 33°44' E 135°08'212.5
2018-Jan-11 13:27N 33°45' E 135°06'613.0
2018-Jan-11 13:01N 33°50' E 135°02'612.6
2018-Jan-11 12:30N 33°56' E 134°59'612.4
2018-Jan-11 12:00N 34°02' E 134°58'611.9
2018-Jan-11 11:31N 34°08' E 134°58'611.9
2018-Jan-11 11:01N 34°14' E 134°58'612.6
2018-Jan-11 10:30N 34°20' E 134°59'611.4
2018-Jan-11 10:01N 34°24' E 135°04'611.6
2018-Jan-11 09:31N 34°28' E 135°09'611.1
2018-Jan-11 09:00N 34°32' E 135°14'510.8
2018-Jan-11 08:31N 34°36' E 135°19'4 8.2
2018-Jan-11 08:00N 34°38' E 135°23'1 2.5
2018-Jan-11 07:25N 34°38' E 135°25'0 0.0
2018-Jan-11 06:55N 34°38' E 135°25'0 0.0
2018-Jan-11 06:30N 34°38' E 135°25'0 0.0
2018-Jan-11 06:00N 34°38' E 135°25'0 0.1
2018-Jan-11 05:30N 34°38' E 135°25'0 0.1
2018-Jan-11 05:00N 34°38' E 135°25'0 0.0
2018-Jan-11 04:30N 34°38' E 135°25'0 0.0
2018-Jan-11 04:00N 34°38' E 135°25'0 0.0
2018-Jan-11 03:30N 34°38' E 135°25'0 0.0
2018-Jan-11 03:00N 34°38' E 135°25'0 0.0
2018-Jan-11 02:30N 34°38' E 135°25'0 0.0
2018-Jan-11 02:00N 34°38' E 135°25'0 0.0
2018-Jan-11 01:30N 34°38' E 135°25'0 0.0
2018-Jan-11 01:00N 34°38' E 135°25'0 0.0
2018-Jan-11 00:30N 34°38' E 135°25'0 0.0
2018-Jan-11 00:00N 34°38' E 135°25'0 0.0
2018-Jan-10 23:30N 34°38' E 135°25'0 0.0
2018-Jan-10 23:00N 34°38' E 135°25'0 0.0
2018-Jan-10 22:30N 34°38' E 135°25'0 0.0
2018-Jan-10 22:00N 34°38' E 135°25'0 0.0
2018-Jan-10 21:30N 34°38' E 135°25'0 0.0
2018-Jan-10 21:00N 34°38' E 135°25'0 0.0
2018-Jan-10 20:30N 34°38' E 135°25'0 0.0
2018-Jan-10 20:00N 34°38' E 135°25'0 0.0
2018-Jan-10 19:30N 34°38' E 135°25'0 0.0
2018-Jan-10 19:00N 34°38' E 135°25'0 0.0
2018-Jan-10 18:30N 34°38' E 135°25'0 0.0
2018-Jan-10 18:00N 34°38' E 135°25'0 0.0
2018-Jan-10 17:30N 34°38' E 135°25'0 0.0
2018-Jan-10 17:00N 34°38' E 135°25'0 0.0
2018-Jan-10 16:30N 34°38' E 135°25'0 0.0
2018-Jan-10 16:00N 34°38' E 135°25'0 0.0
2018-Jan-10 15:30N 34°38' E 135°25'0 0.0
2018-Jan-10 15:00N 34°38' E 135°25'0 0.0
2018-Jan-10 14:30N 34°38' E 135°25'0 0.0
2018-Jan-10 14:00N 34°38' E 135°25'0 0.0
2018-Jan-10 13:30N 34°38' E 135°25'0 0.0
2018-Jan-10 13:00N 34°38' E 135°25'0 0.0
2018-Jan-10 12:30N 34°38' E 135°25'0 0.0
2018-Jan-10 12:00N 34°38' E 135°25'0 0.0
2018-Jan-10 11:30N 34°38' E 135°25'0 0.0
2018-Jan-10 11:00N 34°38' E 135°25'0 0.0
2018-Jan-10 10:30N 34°38' E 135°25'0 0.0
2018-Jan-10 10:00N 34°38' E 135°25'0 0.0
2018-Jan-10 09:30N 34°38' E 135°25'0 0.0
2018-Jan-10 09:00N 34°38' E 135°25'0 0.0
2018-Jan-10 08:30N 34°38' E 135°25'0 0.0
2018-Jan-10 08:00N 34°38' E 135°25'0 0.0
2018-Jan-10 07:30N 34°38' E 135°25'0 0.0
2018-Jan-10 07:00N 34°38' E 135°25'0 0.0
2018-Jan-10 06:30N 34°38' E 135°25'0 0.1
2018-Jan-10 06:00N 34°38' E 135°25'0 0.1
2018-Jan-10 05:30N 34°38' E 135°25'0 0.0
2018-Jan-10 05:00N 34°38' E 135°25'0 0.0
2018-Jan-10 04:30N 34°38' E 135°25'0 0.0
2018-Jan-10 04:00N 34°38' E 135°25'0 0.0
2018-Jan-10 03:30N 34°38' E 135°25'0 0.0
2018-Jan-10 03:00N 34°38' E 135°25'0 0.0
2018-Jan-10 02:30N 34°38' E 135°25'0 0.0
2018-Jan-10 02:00N 34°38' E 135°25'0 0.0
2018-Jan-10 01:30N 34°38' E 135°25'0 0.0
2018-Jan-10 01:00N 34°38' E 135°25'  
Track history (hours):
 
Tides and Currents Weather Stations Pressure Air Temp Water Temp Dewpoint Dewpoint Depression Visibility Wind Speed Wind Dir Waves Ship Positions

Yusho Cherry

Last reported at 2018-Jan-20 00:56 UTC. Time now 2018-Jan-20 01:22 UTC.
Position N 34°39' E 135°26'.

Length 110 m; draft 5.6 m.

Type: Ship. MMSI: 372991000.

Date/timePositionNaut miles runAvg speedWind from/ knotsBaromVisibWave heightAir tempDewpointWater temp
2018-Jan-20 00:56N 34°39' E 135°26'0 0.0
2018-Jan-20 00:26N 34°39' E 135°26'0 0.0
2018-Jan-19 23:56N 34°39' E 135°26'0 0.0
2018-Jan-19 23:26N 34°39' E 135°26'0 0.0
2018-Jan-19 22:56N 34°39' E 135°26'0 0.0
2018-Jan-19 22:29N 34°39' E 135°26'0 1.0
2018-Jan-19 22:00N 34°39' E 135°25'2 4.8
2018-Jan-19 21:30N 34°38' E 135°23'1 1.3
2018-Jan-19 20:58N 34°37' E 135°22'0 0.0
2018-Jan-19 20:28N 34°37' E 135°22'0 0.0
2018-Jan-19 19:58N 34°37' E 135°22'0 0.1
2018-Jan-19 19:28N 34°37' E 135°22'0 0.0
2018-Jan-19 18:58N 34°37' E 135°22'0 0.1
2018-Jan-19 18:28N 34°37' E 135°22'0 0.1
2018-Jan-19 17:58N 34°37' E 135°22'0 0.1
2018-Jan-19 17:28N 34°37' E 135°22'0 0.1
2018-Jan-19 16:58N 34°37' E 135°22'0 0.1
2018-Jan-19 16:28N 34°37' E 135°22'0 0.1
2018-Jan-19 15:58N 34°37' E 135°22'0 0.0
2018-Jan-19 15:28N 34°37' E 135°22'0 0.0
2018-Jan-19 14:58N 34°37' E 135°22'0 0.0
2018-Jan-19 14:28N 34°37' E 135°22'0 0.0
2018-Jan-19 13:58N 34°37' E 135°22'0 0.0
2018-Jan-19 13:28N 34°37' E 135°22'0 0.0
2018-Jan-19 12:58N 34°37' E 135°22'0 0.0
2018-Jan-19 12:28N 34°37' E 135°22'0 0.0
2018-Jan-19 11:58N 34°37' E 135°22'0 0.0
2018-Jan-19 11:22N 34°37' E 135°22'1 2.0
2018-Jan-19 11:00N 34°36' E 135°22'4 8.2
2018-Jan-19 10:30N 34°32' E 135°24'1 2.0
2018-Jan-19 09:58N 34°31' E 135°24'0 0.0
2018-Jan-19 09:26N 34°31' E 135°24'0 0.1
2018-Jan-19 08:58N 34°31' E 135°24'0 0.0
2018-Jan-19 08:25N 34°31' E 135°24'0 0.0
2018-Jan-19 07:58N 34°31' E 135°24'0 0.0
2018-Jan-19 07:28N 34°31' E 135°24'0 0.0
2018-Jan-19 06:58N 34°31' E 135°24'0 0.0
2018-Jan-19 06:28N 34°31' E 135°24'0 0.0
2018-Jan-19 05:58N 34°31' E 135°24'0 0.0
2018-Jan-19 05:28N 34°31' E 135°24'0 0.0
2018-Jan-19 04:58N 34°31' E 135°24'0 0.0
2018-Jan-19 04:28N 34°31' E 135°24'0 0.0
2018-Jan-19 03:58N 34°31' E 135°24'0 0.0
2018-Jan-19 03:28N 34°31' E 135°24'0 0.0
2018-Jan-19 02:58N 34°31' E 135°24'0 0.0
2018-Jan-19 02:25N 34°31' E 135°24'0 0.0
2018-Jan-19 01:58N 34°31' E 135°24'0 0.0
2018-Jan-19 01:28N 34°31' E 135°24'0 0.0
2018-Jan-19 00:58N 34°31' E 135°24'0 0.0
2018-Jan-19 00:30N 34°31' E 135°24'0 0.0
2018-Jan-18 23:59N 34°31' E 135°24'0 0.0
2018-Jan-18 23:30N 34°31' E 135°24'0 0.0
2018-Jan-18 23:00N 34°31' E 135°24'0 0.0
2018-Jan-18 22:30N 34°31' E 135°24'0 0.0
2018-Jan-18 22:00N 34°31' E 135°24'0 0.0
2018-Jan-18 21:30N 34°31' E 135°24'0 0.0
2018-Jan-18 21:00N 34°31' E 135°24'0 0.0
2018-Jan-18 20:30N 34°31' E 135°24'0 0.0
2018-Jan-18 20:00N 34°31' E 135°24'0 0.0
2018-Jan-18 19:30N 34°31' E 135°24'0 0.0
2018-Jan-18 19:00N 34°31' E 135°24'0 0.0
2018-Jan-18 18:30N 34°31' E 135°24'0 0.0
2018-Jan-18 18:00N 34°31' E 135°24'0 0.0
2018-Jan-18 17:30N 34°31' E 135°24'0 0.0
2018-Jan-18 17:00N 34°31' E 135°24'0 0.0
2018-Jan-18 16:29N 34°31' E 135°24'0 0.0
2018-Jan-18 15:56N 34°31' E 135°24'0 0.0
2018-Jan-18 15:29N 34°31' E 135°24'0 0.0
2018-Jan-18 14:59N 34°31' E 135°24'0 0.0
2018-Jan-18 14:29N 34°31' E 135°24'0 0.0
2018-Jan-18 13:56N 34°31' E 135°24'0 0.0
2018-Jan-18 13:29N 34°31' E 135°24'0 0.0
2018-Jan-18 12:59N 34°31' E 135°24'0 0.0
2018-Jan-18 12:29N 34°31' E 135°24'0 0.0
2018-Jan-18 11:59N 34°31' E 135°24'0 0.0
2018-Jan-18 11:29N 34°31' E 135°24'0 0.0
2018-Jan-18 10:59N 34°31' E 135°24'0 0.0
2018-Jan-18 10:29N 34°31' E 135°24'0 0.0
2018-Jan-18 09:59N 34°31' E 135°24'0 0.0
2018-Jan-18 09:26N 34°31' E 135°24'0 0.0
2018-Jan-18 08:56N 34°31' E 135°24'0 0.0
2018-Jan-18 08:29N 34°31' E 135°24'0 0.0
2018-Jan-18 07:59N 34°31' E 135°24'0 0.0
2018-Jan-18 07:26N 34°31' E 135°24'0 0.0
2018-Jan-18 06:59N 34°31' E 135°24'0 0.0
2018-Jan-18 06:29N 34°31' E 135°24'0 0.0
2018-Jan-18 05:56N 34°31' E 135°24'0 0.0
2018-Jan-18 05:29N 34°31' E 135°24'0 0.0
2018-Jan-18 04:56N 34°31' E 135°24'0 0.0
2018-Jan-18 04:26N 34°31' E 135°24'0 0.0
2018-Jan-18 03:56N 34°31' E 135°24'0 0.0
2018-Jan-18 03:26N 34°31' E 135°24'0 0.0
2018-Jan-18 02:56N 34°31' E 135°24'0 0.0
2018-Jan-18 02:26N 34°31' E 135°24'0 0.0
2018-Jan-18 01:56N 34°31' E 135°24'0 0.0
2018-Jan-18 01:26N 34°31' E 135°24'0 0.0
2018-Jan-18 00:50N 34°31' E 135°24'0 0.0
2018-Jan-17 23:59N 34°31' E 135°24'0 0.1
2018-Jan-17 23:56N 34°31' E 135°24'  
2018-Jan-12 14:59N 34°28' E 138°13'2 3.1
2018-Jan-12 14:29N 34°28' E 138°11'1 2.9
2018-Jan-12 13:59N 34°28' E 138°09'7 2.6
2018-Jan-12 11:18N 34°28' E 138°01'27 3.2
2018-Jan-12 02:47N 34°28' E 137°28'4011.1
2018-Jan-11 23:11N 34°06' E 136°48'410.9
2018-Jan-11 22:49N 34°04' E 136°44'510.8
2018-Jan-11 22:19N 34°00' E 136°39'69 9.9
2018-Jan-11 15:17N 33°29' E 135°25'512.7
2018-Jan-11 14:55N 33°31' E 135°19'512.6
2018-Jan-11 14:29N 33°35' E 135°15'1112.5
2018-Jan-11 13:38N 33°44' E 135°08'212.5
2018-Jan-11 13:27N 33°45' E 135°06'613.0
2018-Jan-11 13:01N 33°50' E 135°02'612.6
2018-Jan-11 12:30N 33°56' E 134°59'612.4
2018-Jan-11 12:00N 34°02' E 134°58'611.9
2018-Jan-11 11:31N 34°08' E 134°58'611.9
2018-Jan-11 11:01N 34°14' E 134°58'612.6
2018-Jan-11 10:30N 34°20' E 134°59'611.4
2018-Jan-11 10:01N 34°24' E 135°04'611.6
2018-Jan-11 09:31N 34°28' E 135°09'611.1
2018-Jan-11 09:00N 34°32' E 135°14'510.8
2018-Jan-11 08:31N 34°36' E 135°19'4 8.2
2018-Jan-11 08:00N 34°38' E 135°23'1 2.5
2018-Jan-11 07:25N 34°38' E 135°25'0 0.0
2018-Jan-11 06:55N 34°38' E 135°25'0 0.0
2018-Jan-11 06:30N 34°38' E 135°25'0 0.0
2018-Jan-11 06:00N 34°38' E 135°25'0 0.1
2018-Jan-11 05:30N 34°38' E 135°25'0 0.1
2018-Jan-11 05:00N 34°38' E 135°25'0 0.0
2018-Jan-11 04:30N 34°38' E 135°25'0 0.0
2018-Jan-11 04:00N 34°38' E 135°25'0 0.0
2018-Jan-11 03:30N 34°38' E 135°25'0 0.0
2018-Jan-11 03:00N 34°38' E 135°25'0 0.0
2018-Jan-11 02:30N 34°38' E 135°25'0 0.0
2018-Jan-11 02:00N 34°38' E 135°25'0 0.0
2018-Jan-11 01:30N 34°38' E 135°25'0 0.0
2018-Jan-11 01:00N 34°38' E 135°25'0 0.0
2018-Jan-11 00:30N 34°38' E 135°25'0 0.0
2018-Jan-11 00:00N 34°38' E 135°25'0 0.0
2018-Jan-10 23:30N 34°38' E 135°25'0 0.0
2018-Jan-10 23:00N 34°38' E 135°25'0 0.0
2018-Jan-10 22:30N 34°38' E 135°25'0 0.0
2018-Jan-10 22:00N 34°38' E 135°25'0 0.0
2018-Jan-10 21:30N 34°38' E 135°25'0 0.0
2018-Jan-10 21:00N 34°38' E 135°25'0 0.0
2018-Jan-10 20:30N 34°38' E 135°25'0 0.0
2018-Jan-10 20:00N 34°38' E 135°25'0 0.0
2018-Jan-10 19:30N 34°38' E 135°25'0 0.0
2018-Jan-10 19:00N 34°38' E 135°25'0 0.0
2018-Jan-10 18:30N 34°38' E 135°25'0 0.0
2018-Jan-10 18:00N 34°38' E 135°25'0 0.0
2018-Jan-10 17:30N 34°38' E 135°25'0 0.0
2018-Jan-10 17:00N 34°38' E 135°25'0 0.0
2018-Jan-10 16:30N 34°38' E 135°25'0 0.0
2018-Jan-10 16:00N 34°38' E 135°25'0 0.0
2018-Jan-10 15:30N 34°38' E 135°25'0 0.0
2018-Jan-10 15:00N 34°38' E 135°25'0 0.0
2018-Jan-10 14:30N 34°38' E 135°25'0 0.0
2018-Jan-10 14:00N 34°38' E 135°25'0 0.0
2018-Jan-10 13:30N 34°38' E 135°25'0 0.0
2018-Jan-10 13:00N 34°38' E 135°25'0 0.0
2018-Jan-10 12:30N 34°38' E 135°25'0 0.0
2018-Jan-10 12:00N 34°38' E 135°25'0 0.0
2018-Jan-10 11:30N 34°38' E 135°25'0 0.0
2018-Jan-10 11:00N 34°38' E 135°25'0 0.0
2018-Jan-10 10:30N 34°38' E 135°25'0 0.0
2018-Jan-10 10:00N 34°38' E 135°25'0 0.0
2018-Jan-10 09:30N 34°38' E 135°25'0 0.0
2018-Jan-10 09:00N 34°38' E 135°25'0 0.0
2018-Jan-10 08:30N 34°38' E 135°25'0 0.0
2018-Jan-10 08:00N 34°38' E 135°25'0 0.0
2018-Jan-10 07:30N 34°38' E 135°25'0 0.0
2018-Jan-10 07:00N 34°38' E 135°25'0 0.0
2018-Jan-10 06:30N 34°38' E 135°25'0 0.1
2018-Jan-10 06:00N 34°38' E 135°25'0 0.1
2018-Jan-10 05:30N 34°38' E 135°25'0 0.0
2018-Jan-10 05:00N 34°38' E 135°25'0 0.0
2018-Jan-10 04:30N 34°38' E 135°25'0 0.0
2018-Jan-10 04:00N 34°38' E 135°25'0 0.0
2018-Jan-10 03:30N 34°38' E 135°25'0 0.0
2018-Jan-10 03:00N 34°38' E 135°25'0 0.0
2018-Jan-10 02:30N 34°38' E 135°25'0 0.0
2018-Jan-10 02:00N 34°38' E 135°25'0 0.0
2018-Jan-10 01:30N 34°38' E 135°25'0 0.0
2018-Jan-10 01:00N 34°38' E 135°25'  

Dump ship's entire track history